createdAt,value
2018-06-17T00:00:40.440Z,7.87
2018-06-17T00:03:08.734Z,8.97
2018-06-17T00:05:41.229Z,8.33
2018-06-17T00:08:09.594Z,9.07
2018-06-17T00:10:45.391Z,9.63
2018-06-17T00:13:13.585Z,9.00
2018-06-17T00:15:48.835Z,9.47
2018-06-17T00:18:24.390Z,9.27
2018-06-17T00:20:59.766Z,9.67
2018-06-17T00:23:31.957Z,9.00
2018-06-17T00:26:12.273Z,8.70
2018-06-17T00:28:50.764Z,10.47
2018-06-17T00:31:27.008Z,9.30
2018-06-17T00:33:55.408Z,9.47
2018-06-17T00:36:24.104Z,9.37
2018-06-17T00:39:04.231Z,10.13
2018-06-17T00:41:32.495Z,11.70
2018-06-17T00:44:05.749Z,10.33
2018-06-17T00:46:37.965Z,10.03
2018-06-17T00:49:17.864Z,10.37
2018-06-17T00:51:46.106Z,11.43
2018-06-17T00:54:22.482Z,11.10
2018-06-17T00:57:01.707Z,11.97
2018-06-17T01:02:11.072Z,11.60
2018-06-17T01:04:39.352Z,11.10
2018-06-17T01:07:14.062Z,12.00
2018-06-17T01:09:42.345Z,11.40
2018-06-17T01:12:16.681Z,10.27
2018-06-17T01:14:48.020Z,10.93
2018-06-17T01:17:22.626Z,10.30
2018-06-17T01:19:55.800Z,10.70
2018-06-17T01:22:27.271Z,9.40
2018-06-17T01:25:01.302Z,9.97
2018-06-17T01:27:29.541Z,10.80
2018-06-17T01:30:04.192Z,9.73
2018-06-17T01:32:32.522Z,8.80
2018-06-17T01:35:07.254Z,9.40
2018-06-17T01:37:35.528Z,9.23
2018-06-17T01:40:07.912Z,9.80
2018-06-17T01:42:40.600Z,9.87
2018-06-17T01:45:08.887Z,9.70
2018-06-17T01:47:43.506Z,8.83
2018-06-17T01:50:11.786Z,9.23
2018-06-17T01:52:46.428Z,9.70
2018-06-17T01:55:14.709Z,8.23
2018-06-17T01:57:47.938Z,8.90
2018-06-17T02:00:20.334Z,11.13
2018-06-17T02:02:48.522Z,10.93
2018-06-17T02:05:22.298Z,11.43
2018-06-17T02:08:00.944Z,12.00
2018-06-17T02:10:39.045Z,11.83
2018-06-17T02:13:12.474Z,12.27
2018-06-17T02:15:50.809Z,12.23
2018-06-17T02:18:21.309Z,12.00
2018-06-17T02:20:53.566Z,13.20
2018-06-17T02:23:21.834Z,12.83
2018-06-17T02:25:50.119Z,13.10
2018-06-17T02:28:21.309Z,13.47
2018-06-17T02:30:57.424Z,14.47
2018-06-17T02:33:25.663Z,14.47
2018-06-17T02:35:56.804Z,11.90
2018-06-17T02:38:27.763Z,13.00
2018-06-17T02:40:55.979Z,13.97
2018-06-17T02:43:30.596Z,14.53
2018-06-17T02:46:04.365Z,14.67
2018-06-17T02:48:38.471Z,14.60
2018-06-17T02:51:15.087Z,14.70
2018-06-17T02:53:48.911Z,16.60
2018-06-17T02:56:22.231Z,16.33
2018-06-17T02:58:52.971Z,14.97
2018-06-17T03:01:21.387Z,16.43
2018-06-17T03:03:53.727Z,15.67
2018-06-17T03:06:24.694Z,16.77
2018-06-17T03:08:55.712Z,17.23
2018-06-17T03:11:25.985Z,17.77
2018-06-17T03:13:54.525Z,16.00
2018-06-17T03:16:25.780Z,16.90
2018-06-17T03:18:54.169Z,15.30
2018-06-17T03:21:26.606Z,14.93
2018-06-17T03:23:54.929Z,15.23
2018-06-17T03:26:34.847Z,14.30
2018-06-17T03:29:10.871Z,16.57
2018-06-17T03:31:49.460Z,15.50
2018-06-17T03:34:17.721Z,17.13
2018-06-17T03:36:53.250Z,16.37
2018-06-17T03:39:24.716Z,19.03
2018-06-17T03:41:52.968Z,15.97
2018-06-17T03:44:23.973Z,20.20
2018-06-17T03:46:52.177Z,21.50
2018-06-17T03:49:25.601Z,20.23
2018-06-17T03:51:56.612Z,19.87
2018-06-17T03:54:27.057Z,20.47
2018-06-17T03:57:15.360Z,17.90
2018-06-17T03:59:45.641Z,19.50
2018-06-17T04:02:14.078Z,17.83
2018-06-17T04:04:47.876Z,18.47
2018-06-17T04:07:30.066Z,18.47
2018-06-17T04:09:58.597Z,19.50
2018-06-17T04:12:26.871Z,19.63
2018-06-17T04:14:55.147Z,19.40
2018-06-17T04:17:28.541Z,18.57
2018-06-17T04:20:06.681Z,17.93
2018-06-17T04:22:40.914Z,18.30
2018-06-17T04:25:12.089Z,18.40
2018-06-17T04:27:40.254Z,18.17
2018-06-17T04:30:16.439Z,17.60
2018-06-17T04:32:47.759Z,18.83
2018-06-17T04:35:16.162Z,17.57
2018-06-17T04:37:44.729Z,16.47
2018-06-17T04:40:13.543Z,16.93
2018-06-17T04:42:55.734Z,17.90
2018-06-17T04:45:25.899Z,16.40
2018-06-17T04:47:54.141Z,15.13
2018-06-17T04:50:26.589Z,14.90
2018-06-17T04:53:01.019Z,14.73
2018-06-17T04:55:32.278Z,14.00
2018-06-17T04:58:00.269Z,13.53
2018-06-17T05:00:28.592Z,14.43
2018-06-17T05:03:04.438Z,14.03
2018-06-17T05:05:35.825Z,13.53
2018-06-17T05:08:04.830Z,13.97
2018-06-17T05:10:44.722Z,14.53
2018-06-17T05:13:13.177Z,12.37
2018-06-17T05:15:41.549Z,12.80
2018-06-17T05:18:09.770Z,12.07
2018-06-17T05:20:44.354Z,11.77
2018-06-17T05:23:12.629Z,11.83
2018-06-17T05:25:43.843Z,11.23
2018-06-17T05:28:17.454Z,11.83
2018-06-17T05:30:48.609Z,10.97
2018-06-17T05:33:19.792Z,11.57
2018-06-17T05:35:48.332Z,10.57
2018-06-17T05:38:16.588Z,10.20
2018-06-17T05:40:51.244Z,9.20
2018-06-17T05:43:19.486Z,9.10
2018-06-17T05:45:54.286Z,7.90
2018-06-17T05:48:22.720Z,8.90
2018-06-17T05:50:51.078Z,8.47
2018-06-17T05:53:19.365Z,8.20
2018-06-17T05:55:57.626Z,6.80
2018-06-17T05:58:33.120Z,6.50
2018-06-17T06:01:04.126Z,5.83
2018-06-17T06:03:32.441Z,6.53
2018-06-17T06:06:00.722Z,6.63
2018-06-17T06:08:40.585Z,5.00
2018-06-17T06:11:09.158Z,4.73
2018-06-17T06:13:39.455Z,4.93
2018-06-17T06:16:07.768Z,4.17
2018-06-17T06:18:42.371Z,4.33
2018-06-17T06:21:10.654Z,5.93
2018-06-17T06:23:44.575Z,5.37
2018-06-17T06:26:15.787Z,5.40
2018-06-17T06:28:44.082Z,5.03
2018-06-17T06:31:15.120Z,5.00
2018-06-17T06:33:49.267Z,4.37
2018-06-17T06:36:17.849Z,4.50
2018-06-17T06:38:46.297Z,3.80
2018-06-17T06:41:14.574Z,3.90
2018-06-17T06:43:43.066Z,3.43
2018-06-17T06:46:11.517Z,3.20
2018-06-17T06:48:43.933Z,3.73
2018-06-17T06:51:14.918Z,3.13
2018-06-17T06:53:53.341Z,3.17
2018-06-17T06:59:06.699Z,3.23
2018-06-17T07:01:50.630Z,3.37
2018-06-17T07:04:30.386Z,3.20
2018-06-17T07:09:58.442Z,3.10
2018-06-17T07:12:26.658Z,3.30
2018-06-17T07:14:54.887Z,2.70
2018-06-17T07:17:36.513Z,2.83
2018-06-17T07:20:07.445Z,2.80
2018-06-17T07:22:35.691Z,2.87
2018-06-17T07:25:03.931Z,2.60
2018-06-17T07:27:48.150Z,2.87
2018-06-17T07:30:23.399Z,2.97
2018-06-17T07:32:51.250Z,2.90
2018-06-17T07:35:27.740Z,3.03
2018-06-17T07:38:01.053Z,3.10
2018-06-17T07:43:22.779Z,2.40
2018-06-17T07:45:53.808Z,2.77
2018-06-17T07:49:51.434Z,2.07
2018-06-17T07:52:32.024Z,2.80
2018-06-17T07:55:00.018Z,2.33
2018-06-17T07:57:31.756Z,2.50
2018-06-17T08:00:02.098Z,2.70
2018-06-17T08:02:30.251Z,2.67
2018-06-17T08:05:03.938Z,2.53
2018-06-17T08:07:32.098Z,2.30
2018-06-17T08:10:07.342Z,2.30
2018-06-17T08:12:38.721Z,1.80
2018-06-17T08:15:17.062Z,2.20
2018-06-17T08:17:47.621Z,1.87
2018-06-17T08:20:27.153Z,2.10
2018-06-17T08:23:03.329Z,1.90
2018-06-17T08:25:31.724Z,1.70
2018-06-17T08:27:59.831Z,1.77
2018-06-17T08:30:34.235Z,2.10
2018-06-17T08:33:13.921Z,1.90
2018-06-17T08:35:42.017Z,1.67
2018-06-17T08:38:16.992Z,1.60
2018-06-17T08:40:45.305Z,2.03
2018-06-17T08:43:13.394Z,1.80
2018-06-17T08:45:44.396Z,1.70
2018-06-17T08:48:12.537Z,2.07
2018-06-17T08:50:46.958Z,2.00
2018-06-17T08:53:21.468Z,1.70
2018-06-17T08:55:53.845Z,2.03
2018-06-17T08:58:35.774Z,1.67
2018-06-17T09:01:06.000Z,1.73
2018-06-17T09:03:34.367Z,2.00
2018-06-17T09:06:07.031Z,1.90
2018-06-17T09:08:35.200Z,1.73
2018-06-17T09:11:10.443Z,1.87
2018-06-17T09:13:43.704Z,1.70
2018-06-17T09:16:14.906Z,1.77
2018-06-17T09:18:43.139Z,1.80
2018-06-17T09:21:20.575Z,1.60
2018-06-17T09:23:51.549Z,1.90
2018-06-17T09:26:22.726Z,2.13
2018-06-17T09:28:50.999Z,1.70
2018-06-17T09:31:24.056Z,1.60
2018-06-17T09:34:03.866Z,1.60
2018-06-17T09:36:34.783Z,1.70
2018-06-17T09:39:08.488Z,1.70
2018-06-17T09:41:41.726Z,1.83
2018-06-17T09:44:11.805Z,1.83
2018-06-17T09:46:40.082Z,1.80
2018-06-17T09:49:19.977Z,1.57
2018-06-17T09:51:48.197Z,2.03
2018-06-17T09:54:16.242Z,1.70
2018-06-17T09:56:48.431Z,1.70
2018-06-17T09:59:16.783Z,1.73
2018-06-17T10:01:44.994Z,1.97
2018-06-17T10:04:21.081Z,2.00
2018-06-17T10:06:52.530Z,1.73
2018-06-17T10:09:31.247Z,1.83
2018-06-17T10:12:06.433Z,1.70
2018-06-17T10:14:38.796Z,2.27
2018-06-17T10:17:07.767Z,1.80
2018-06-17T10:19:35.983Z,1.87
2018-06-17T10:22:13.651Z,1.87
2018-06-17T10:24:41.956Z,1.67
2018-06-17T10:27:16.696Z,1.80
2018-06-17T10:29:45.493Z,1.60
2018-06-17T10:32:26.350Z,1.90
2018-06-17T10:34:58.892Z,1.80
2018-06-17T10:37:29.854Z,1.70
2018-06-17T10:40:00.340Z,1.60
2018-06-17T10:42:38.675Z,1.77
2018-06-17T10:45:08.874Z,1.80
2018-06-17T10:47:37.109Z,1.73
2018-06-17T10:50:09.231Z,2.00
2018-06-17T10:52:49.319Z,1.60
2018-06-17T10:55:17.570Z,2.03
2018-06-17T10:57:49.966Z,1.80
2018-06-17T11:00:24.662Z,2.20
2018-06-17T11:02:52.885Z,1.70
2018-06-17T11:05:23.906Z,1.63
2018-06-17T11:07:52.471Z,1.80
2018-06-17T11:10:23.361Z,1.90
2018-06-17T11:12:56.721Z,2.17
2018-06-17T11:15:31.262Z,1.93
2018-06-17T11:18:02.689Z,2.07
2018-06-17T11:20:37.496Z,2.27
2018-06-17T11:23:05.702Z,2.10
2018-06-17T11:25:38.195Z,2.00
2018-06-17T11:28:11.638Z,1.90
2018-06-17T11:30:39.934Z,1.87
2018-06-17T11:33:11.172Z,2.27
2018-06-17T11:35:49.567Z,2.20
2018-06-17T11:38:20.747Z,1.97
2018-06-17T11:40:49.047Z,2.70
2018-06-17T11:43:17.295Z,2.23
2018-06-17T11:45:48.303Z,1.87
2018-06-17T11:48:16.810Z,1.90
2018-06-17T11:50:47.374Z,1.93
2018-06-17T11:53:17.769Z,2.20
2018-06-17T11:55:48.149Z,2.57
2018-06-17T11:58:16.434Z,2.20
2018-06-17T12:00:48.834Z,2.30
2018-06-17T12:03:18.872Z,1.93
2018-06-17T12:05:47.335Z,1.93
2018-06-17T12:08:18.487Z,2.17
2018-06-17T12:10:46.831Z,2.00
2018-06-17T12:13:19.041Z,2.53
2018-06-17T12:15:55.406Z,2.00
2018-06-17T12:18:26.442Z,2.40
2018-06-17T12:20:54.790Z,1.93
2018-06-17T12:23:22.977Z,1.97
2018-06-17T12:25:54.673Z,1.93
2018-06-17T12:28:25.583Z,2.27
2018-06-17T12:31:04.007Z,1.80
2018-06-17T12:33:44.739Z,2.13
2018-06-17T12:36:19.271Z,2.10
2018-06-17T12:38:53.910Z,2.03
2018-06-17T12:41:22.310Z,2.00
2018-06-17T12:43:54.689Z,2.07
2018-06-17T12:46:25.707Z,2.00
2018-06-17T12:49:05.742Z,1.93
2018-06-17T12:51:34.037Z,2.00
2018-06-17T12:54:11.885Z,1.80
2018-06-17T12:56:40.324Z,2.00
2018-06-17T12:59:08.799Z,2.07
2018-06-17T13:01:37.166Z,1.70
2018-06-17T13:04:06.502Z,2.00
2018-06-17T13:06:38.921Z,2.37
2018-06-17T13:09:11.450Z,2.23
2018-06-17T13:11:42.356Z,2.50
2018-06-17T13:14:20.473Z,1.87
2018-06-17T13:16:48.757Z,1.83
2018-06-17T13:19:21.536Z,2.13
2018-06-17T13:21:49.911Z,2.27
2018-06-17T13:24:18.169Z,1.73
2018-06-17T13:26:52.912Z,2.10
2018-06-17T13:29:21.165Z,2.10
2018-06-17T13:31:53.830Z,2.03
2018-06-17T13:34:22.239Z,2.23
2018-06-17T13:37:00.349Z,2.57
2018-06-17T13:39:34.962Z,1.90
2018-06-17T13:42:07.563Z,2.30
2018-06-17T13:44:35.806Z,2.17
2018-06-17T13:47:08.925Z,1.80
2018-06-17T13:49:43.787Z,2.20
2018-06-17T13:52:19.925Z,2.53
2018-06-17T13:54:51.413Z,1.90
2018-06-17T13:57:23.002Z,2.10
2018-06-17T13:59:59.936Z,2.10
2018-06-17T14:02:28.467Z,3.00
2018-06-17T14:04:56.922Z,2.30
2018-06-17T14:07:25.195Z,2.00
2018-06-17T14:10:00.585Z,2.30
2018-06-17T14:12:33.736Z,2.50
2018-06-17T14:15:07.516Z,2.10
2018-06-17T14:17:35.715Z,2.17
2018-06-17T14:20:07.385Z,2.17
2018-06-17T14:22:37.700Z,2.30
2018-06-17T14:25:09.370Z,2.30
2018-06-17T14:27:41.032Z,2.50
2018-06-17T14:30:09.502Z,2.50
2018-06-17T14:32:38.039Z,2.20
2018-06-17T14:35:06.231Z,2.80
2018-06-17T14:37:39.337Z,2.90
2018-06-17T14:40:10.287Z,2.17
2018-06-17T14:42:46.790Z,2.37
2018-06-17T14:45:20.591Z,2.00
2018-06-17T14:47:56.117Z,3.13
2018-06-17T14:50:32.831Z,2.60
2018-06-17T14:53:06.849Z,1.97
2018-06-17T14:55:35.349Z,2.37
2018-06-17T14:58:03.968Z,2.50
2018-06-17T15:00:35.501Z,2.70
2018-06-17T15:03:06.981Z,2.33
2018-06-17T15:05:38.402Z,2.30
2018-06-17T15:08:07.214Z,2.43
2018-06-17T15:10:41.841Z,2.10
2018-06-17T15:13:10.102Z,2.20
2018-06-17T15:15:44.648Z,2.17
2018-06-17T15:18:21.463Z,2.10
2018-06-17T15:20:49.720Z,2.30
2018-06-17T15:23:18.045Z,1.80
2018-06-17T15:25:49.188Z,2.07
2018-06-17T15:28:17.190Z,1.87
2018-06-17T15:30:45.544Z,2.30
2018-06-17T15:33:21.499Z,2.17
2018-06-17T15:35:58.635Z,2.30
2018-06-17T15:38:32.376Z,2.20
2018-06-17T15:41:09.127Z,2.33
2018-06-17T15:43:40.128Z,2.13
2018-06-17T15:46:08.354Z,2.20
2018-06-17T15:48:39.314Z,2.30
2018-06-17T15:51:10.521Z,2.53
2018-06-17T15:53:38.753Z,2.50
2018-06-17T15:56:09.758Z,2.43
2018-06-17T15:58:41.658Z,2.27
2018-06-17T16:01:19.226Z,2.50
2018-06-17T16:03:47.647Z,2.60
2018-06-17T16:06:15.859Z,2.50
2018-06-17T16:08:53.821Z,2.50
2018-06-17T16:11:22.059Z,2.20
2018-06-17T16:13:58.833Z,2.30
2018-06-17T16:16:34.521Z,2.80
2018-06-17T16:19:12.301Z,2.70
2018-06-17T16:21:43.440Z,2.40
2018-06-17T16:24:14.660Z,2.20
2018-06-17T16:26:45.269Z,2.60
2018-06-17T16:29:25.101Z,2.83
2018-06-17T16:31:57.650Z,2.70
2018-06-17T16:34:25.893Z,2.40
2018-06-17T16:37:05.850Z,2.67
2018-06-17T16:39:36.073Z,2.40
2018-06-17T16:42:04.453Z,2.90
2018-06-17T16:44:36.926Z,2.80
2018-06-17T16:47:05.278Z,2.80
2018-06-17T16:49:41.525Z,2.40
2018-06-17T16:52:21.354Z,2.60
2018-06-17T16:54:55.296Z,2.60
2018-06-17T17:01:12.873Z,2.57
2018-06-17T17:03:41.159Z,2.50
2018-06-17T17:06:12.357Z,2.83
2018-06-17T17:08:40.813Z,3.40
2018-06-17T17:11:28.108Z,3.47
2018-06-17T17:14:08.146Z,2.50
2018-06-17T17:16:36.529Z,2.47
2018-06-17T17:19:10.576Z,2.10
2018-06-17T17:21:44.005Z,2.37
2018-06-17T17:24:14.293Z,2.20
2018-06-17T17:26:44.818Z,2.40
2018-06-17T17:29:15.033Z,2.53
2018-06-17T17:31:48.899Z,2.60
2018-06-17T17:34:28.796Z,2.57
2018-06-17T17:37:02.786Z,2.43
2018-06-17T17:39:39.490Z,2.80
2018-06-17T17:42:08.416Z,2.77
2018-06-17T17:44:42.405Z,2.80
2018-06-17T17:47:18.320Z,2.43
2018-06-17T17:49:49.373Z,2.37
2018-06-17T17:52:24.857Z,2.67
2018-06-17T17:54:53.183Z,2.80
2018-06-17T17:57:35.122Z,2.77
2018-06-17T18:00:06.581Z,2.80
2018-06-17T18:02:38.765Z,2.70
2018-06-17T18:05:06.955Z,2.90
2018-06-17T18:07:38.070Z,2.83
2018-06-17T18:10:06.300Z,3.03
2018-06-17T18:12:34.773Z,2.70
2018-06-17T18:15:02.998Z,2.30
2018-06-17T18:17:40.667Z,3.43
2018-06-17T18:20:08.876Z,2.53
2018-06-17T18:22:43.694Z,2.97
2018-06-17T18:25:19.580Z,2.80
2018-06-17T18:27:57.679Z,3.07
2018-06-17T18:30:33.693Z,2.57
2018-06-17T18:33:07.549Z,2.70
2018-06-17T18:35:43.595Z,3.33
2018-06-17T18:38:11.880Z,2.90
2018-06-17T18:40:51.671Z,2.93
2018-06-17T18:43:19.920Z,3.23
2018-06-17T18:45:53.299Z,3.57
2018-06-17T18:48:28.259Z,2.80
2018-06-17T18:51:06.963Z,3.20
2018-06-17T18:53:41.610Z,3.10
2018-06-17T18:56:25.616Z,3.60
2018-06-17T18:58:59.449Z,2.67
2018-06-17T19:01:30.499Z,3.20
2018-06-17T19:04:03.178Z,3.40
2018-06-17T19:06:34.277Z,2.80
2018-06-17T19:09:09.978Z,3.40
2018-06-17T19:11:48.343Z,3.13
2018-06-17T19:14:26.508Z,3.73
2018-06-17T19:17:02.234Z,2.97
2018-06-17T19:19:34.750Z,3.43
2018-06-17T19:22:09.413Z,3.43
2018-06-17T19:24:42.645Z,3.93
2018-06-17T19:27:15.739Z,3.73
2018-06-17T19:29:46.015Z,3.40
2018-06-17T19:32:16.970Z,3.57
2018-06-17T19:34:49.354Z,3.20
2018-06-17T19:37:26.332Z,3.60
2018-06-17T19:39:54.580Z,3.17
2018-06-17T19:42:22.781Z,3.87
2018-06-17T19:45:00.829Z,3.53
2018-06-17T19:47:29.135Z,3.70
2018-06-17T19:50:02.948Z,4.07
2018-06-17T19:52:39.741Z,4.00
2018-06-17T19:55:17.924Z,3.50
2018-06-17T19:57:55.681Z,4.03
2018-06-17T20:00:31.494Z,4.00
2018-06-17T20:03:00.158Z,3.93
2018-06-17T20:05:31.511Z,3.63
2018-06-17T20:08:02.781Z,4.00
2018-06-17T20:10:31.054Z,3.90
2018-06-17T20:13:04.194Z,3.80
2018-06-17T20:15:37.570Z,4.20
2018-06-17T20:18:16.668Z,4.10
2018-06-17T20:20:44.957Z,3.83
2018-06-17T20:23:13.713Z,4.33
2018-06-17T20:25:42.326Z,4.87
2018-06-17T20:28:12.885Z,4.40
2018-06-17T20:30:43.475Z,4.87
2018-06-17T20:33:22.942Z,4.23
2018-06-17T20:36:01.075Z,4.73
2018-06-17T20:38:34.895Z,4.20
2018-06-17T20:41:08.613Z,4.90
2018-06-17T20:43:42.370Z,4.50
2018-06-17T20:46:10.824Z,5.03
2018-06-17T20:48:39.165Z,5.30
2018-06-17T20:51:07.359Z,4.50
2018-06-17T20:53:38.538Z,4.80
2018-06-17T20:56:18.380Z,4.90
2018-06-17T20:58:49.379Z,4.47
2018-06-17T21:01:19.908Z,4.93
2018-06-17T21:03:51.385Z,4.50
2018-06-17T21:06:21.507Z,5.00
2018-06-17T21:08:49.760Z,5.07
2018-06-17T21:11:21.084Z,4.93
2018-06-17T21:13:56.662Z,5.37
2018-06-17T21:16:30.043Z,6.07
2018-06-17T21:19:11.548Z,4.90
2018-06-17T21:21:47.355Z,5.50
2018-06-17T21:24:23.416Z,4.93
2018-06-17T21:27:00.108Z,5.53
2018-06-17T21:29:29.091Z,6.07
2018-06-17T21:32:03.681Z,5.70
2018-06-17T21:34:33.934Z,5.93
2018-06-17T21:37:08.693Z,6.00
2018-06-17T21:39:37.034Z,5.87
2018-06-17T21:42:11.783Z,5.13
2018-06-17T21:44:40.045Z,5.60
2018-06-17T21:47:13.459Z,5.10
2018-06-17T21:49:46.632Z,4.63
2018-06-17T21:52:26.582Z,5.20
2018-06-17T21:54:54.757Z,4.47
2018-06-17T21:57:25.938Z,5.47
2018-06-17T21:59:57.286Z,4.47
2018-06-17T22:02:39.506Z,4.30
2018-06-17T22:05:07.805Z,4.37
2018-06-17T22:07:40.466Z,4.43
2018-06-17T22:10:14.148Z,4.17
2018-06-17T22:12:55.477Z,4.90
2018-06-17T22:15:38.934Z,4.43
2018-06-17T22:18:11.357Z,4.00
2018-06-17T22:20:44.582Z,3.57
2018-06-17T22:23:12.863Z,4.40
2018-06-17T22:25:41.061Z,4.30
2018-06-17T22:28:12.177Z,4.77
2018-06-17T22:30:42.458Z,5.03
2018-06-17T22:33:10.699Z,4.30
2018-06-17T22:35:38.953Z,4.07
2018-06-17T22:38:13.609Z,4.07
2018-06-17T22:40:51.351Z,4.40
2018-06-17T22:43:19.562Z,4.53
2018-06-17T22:45:47.834Z,4.07
2018-06-17T22:48:27.741Z,4.30
2018-06-17T22:50:56.048Z,4.47
2018-06-17T22:53:35.728Z,4.17
2018-06-17T22:56:12.626Z,4.23
2018-06-17T22:58:50.813Z,4.00
2018-06-17T23:01:29.198Z,4.60
2018-06-17T23:04:09.445Z,4.60
2018-06-17T23:06:48.853Z,3.77
2018-06-17T23:09:27.805Z,3.83
2018-06-17T23:11:56.420Z,4.67
2018-06-17T23:14:24.673Z,4.37
2018-06-17T23:16:55.861Z,4.43
2018-06-17T23:19:28.975Z,4.90
2018-06-17T23:21:57.428Z,4.50
2018-06-17T23:24:25.882Z,4.70
2018-06-17T23:26:54.112Z,4.30
2018-06-17T23:29:25.119Z,4.73
2018-06-17T23:32:00.430Z,4.83
2018-06-17T23:34:28.732Z,5.10
2018-06-17T23:36:57.069Z,4.50
2018-06-17T23:39:25.287Z,4.43
2018-06-17T23:41:56.288Z,4.90
2018-06-17T23:44:24.787Z,4.77
2018-06-17T23:46:58.642Z,4.27
2018-06-17T23:49:36.339Z,5.20
2018-06-17T23:52:12.972Z,4.70
2018-06-17T23:54:48.669Z,5.00
2018-06-17T23:57:19.855Z,5.47
2018-06-17T23:59:48.089Z,5.30
